Time;durP1;ratioP1;P1;durP2;ratioP2;P2;SDS_P1;SDS_P2;PMS_P1;PMS_P2;Temp;Humidity;BMP_temperature;BMP_pressure;BME280_temperature;BME280_humidity;BME280_pressure;Samples;Min_cycle;Max_cycle;Signal;HPM_P1;HPM_P2
2022/04/25 00:00:13;;;;;;;5.03;3.30;;;;;;;-145.69;100.00;71310.84;5072087;28;20199;-75
2022/04/25 00:02:39;;;;;;;6.43;3.77;;;;;;;-145.69;100.00;71310.84;5073930;28;20222;-75
2022/04/25 00:05:06;;;;;;;5.97;3.83;;;;;;;-145.69;100.00;71310.84;5076349;28;20654;-75
2022/04/25 00:07:34;;;;;;;6.37;4.17;;;;;;;-145.69;100.00;71306.88;5075366;28;20477;-75
2022/04/25 00:10:01;;;;;;;9.40;3.97;;;;;;;-145.69;100.00;71308.88;5076153;28;20604;-76
2022/04/25 00:12:28;;;;;;;6.40;3.70;;;;;;;-145.69;100.00;71306.88;5076106;28;20202;-75
2022/04/25 00:14:54;;;;;;;5.13;3.50;;;;;;;-145.69;100.00;71304.91;5075764;28;20195;-76
2022/04/25 00:17:21;;;;;;;6.20;3.57;;;;;;;-145.69;100.00;71306.88;5076198;28;20231;-75
2022/04/25 00:19:48;;;;;;;5.90;3.23;;;;;;;-145.69;100.00;71310.84;5058856;28;20718;-76
2022/04/25 00:22:15;;;;;;;7.33;3.53;;;;;;;-145.69;100.00;71298.94;5055801;28;20231;-75
2022/04/25 00:24:44;;;;;;;6.27;3.53;;;;;;;-145.69;100.00;71300.91;5056031;28;20199;-75
2022/04/25 00:27:11;;;;;;;5.70;3.33;;;;;;;-145.69;100.00;71302.91;5055948;28;20234;-75
2022/04/25 00:29:37;;;;;;;5.17;3.10;;;;;;;-145.69;100.00;71308.88;5055921;28;20729;-75
2022/04/25 00:32:05;;;;;;;4.57;3.00;;;;;;;-145.69;100.00;71308.88;5055802;28;20663;-75
2022/04/25 00:34:31;;;;;;;5.50;3.40;;;;;;;-145.69;100.00;71308.88;5055998;28;20200;-75
2022/04/25 00:36:57;;;;;;;8.33;3.50;;;;;;;-145.69;100.00;71310.84;5055591;28;20245;-75
2022/04/25 00:39:24;;;;;;;5.23;3.67;;;;;;;-145.69;100.00;71310.84;5055807;28;20572;-75
2022/04/25 00:41:52;;;;;;;6.53;4.10;;;;;;;-145.69;100.00;71310.84;5055717;28;20655;-75
2022/04/25 00:44:19;;;;;;;5.83;3.80;;;;;;;-145.69;100.00;71314.84;5056030;28;20210;-75
2022/04/25 00:46:47;;;;;;;7.40;4.20;;;;;;;-145.69;100.00;71316.84;5075515;28;20305;-75
2022/04/25 00:49:14;;;;;;;6.37;3.70;;;;;;;-145.69;100.00;71322.81;5075408;28;20199;-75
2022/04/25 00:51:40;;;;;;;6.23;3.77;;;;;;;-145.69;100.00;71324.78;5075433;28;20297;-75
2022/04/25 00:54:07;;;;;;;6.50;3.57;;;;;;;-145.69;100.00;71322.81;5075333;28;20203;-75
2022/04/25 00:56:36;;;;;;;7.17;4.10;;;;;;;-145.69;100.00;71326.78;5075409;28;20249;-75
2022/04/25 00:59:04;;;;;;;8.07;4.60;;;;;;;-145.69;100.00;71324.78;5075048;28;20733;-75
2022/04/25 01:01:32;;;;;;;11.93;5.40;;;;;;;-145.69;100.00;71322.81;5075395;28;20198;-75
2022/04/25 01:03:58;;;;;;;12.70;6.40;;;;;;;-145.69;100.00;71316.84;5075381;28;20284;-75
2022/04/25 01:06:25;;;;;;;10.73;6.40;;;;;;;-145.69;100.00;71314.84;5075103;28;20203;-75
2022/04/25 01:08:51;;;;;;;20.97;8.13;;;;;;;-145.69;100.00;71318.81;5075118;28;20249;-75
2022/04/25 01:11:18;;;;;;;17.63;9.20;;;;;;;-145.69;100.00;71314.84;5075441;28;20206;-75
2022/04/25 01:13:45;;;;;;;21.10;9.23;;;;;;;-145.69;100.00;71322.81;5074488;28;20294;-75
2022/04/25 01:16:13;;;;;;;16.13;7.40;;;;;;;-145.69;100.00;71324.78;5074354;28;20198;-76
2022/04/25 01:18:39;;;;;;;18.17;8.90;;;;;;;-145.69;100.00;71320.81;5075161;28;20671;-75
2022/04/25 01:21:09;;;;;;;18.10;9.67;;;;;;;-145.69;100.00;71318.81;5074909;28;20203;-75
2022/04/25 01:29:07;;;;;;;17.25;10.80;;;;;;;-145.69;100.00;71316.84;5073744;28;20567;-75
2022/04/25 01:31:33;;;;;;;15.70;9.03;;;;;;;-145.69;100.00;71318.81;5074754;28;20214;-75
2022/04/25 01:34:00;;;;;;;13.83;7.87;;;;;;;-145.69;100.00;71322.81;5074661;28;20206;-75
2022/04/25 01:36:26;;;;;;;12.43;7.30;;;;;;;-145.69;100.00;71328.78;5074568;28;20566;-75
2022/04/25 01:38:55;;;;;;;14.90;8.50;;;;;;;-145.69;100.00;71330.75;5074599;28;20199;-75
2022/04/25 01:41:21;;;;;;;11.87;6.80;;;;;;;-145.69;100.00;71332.75;5074550;28;20606;-75
2022/04/25 01:43:48;;;;;;;12.97;7.17;;;;;;;-145.69;100.00;71342.69;5074611;28;20234;-75
2022/04/25 01:46:14;;;;;;;16.73;7.73;;;;;;;-145.69;100.00;71338.72;5074367;28;20195;-75
2022/04/25 01:48:41;;;;;;;13.57;7.63;;;;;;;-145.69;100.00;71346.69;5074496;28;20210;-75
2022/04/25 01:51:07;;;;;;;13.10;7.33;;;;;;;-145.69;100.00;71350.66;5074545;28;20203;-75
2022/04/25 01:53:34;;;;;;;16.40;7.90;;;;;;;-145.69;100.00;71350.66;5074362;28;20202;-75
2022/04/25 01:56:02;;;;;;;14.63;7.73;;;;;;;-145.69;100.00;71346.69;5074393;28;20260;-75
2022/04/25 01:58:28;;;;;;;15.03;7.30;;;;;;;-145.69;100.00;71346.69;5074162;28;20199;-75
2022/04/25 02:00:54;;;;;;;13.03;7.80;;;;;;;-145.69;100.00;71356.63;5074152;28;20199;-76
2022/04/25 02:03:21;;;;;;;14.53;7.30;;;;;;;-145.69;100.00;71356.63;5073992;28;20230;-75
2022/04/25 02:05:47;;;;;;;15.27;8.27;;;;;;;-145.69;100.00;71354.63;5074139;28;20640;-75
2022/04/25 02:08:14;;;;;;;14.70;7.90;;;;;;;-145.69;100.00;71354.63;5073874;28;20210;-75
2022/04/25 02:10:40;;;;;;;16.37;8.40;;;;;;;-145.69;100.00;71356.63;5074012;28;20229;-74
2022/04/25 02:13:08;;;;;;;16.93;8.43;;;;;;;-145.69;100.00;71356.63;5073952;28;20206;-74
2022/04/25 02:15:35;;;;;;;16.73;9.10;;;;;;;-145.69;100.00;71352.66;5072729;28;20592;-75
2022/04/25 02:18:01;;;;;;;17.93;9.07;;;;;;;-145.69;100.00;71354.63;5060954;28;20322;-74
2022/04/25 02:20:28;;;;;;;15.13;8.20;;;;;;;-145.69;100.00;71354.63;5053392;28;20208;-74
2022/04/25 02:22:54;;;;;;;17.60;8.67;;;;;;;-145.69;100.00;71358.63;5053654;28;20718;-74
2022/04/25 02:25:21;;;;;;;15.50;8.90;;;;;;;-145.69;100.00;71362.59;5053783;28;20207;-74
2022/04/25 02:27:47;;;;;;;18.00;9.20;;;;;;;-145.69;100.00;71360.59;5053824;28;20210;-75
2022/04/25 02:30:15;;;;;;;17.47;8.67;;;;;;;-145.69;100.00;71366.56;5053700;28;20214;-75
2022/04/25 02:32:42;;;;;;;15.77;8.97;;;;;;;-145.69;100.00;71370.56;5053540;28;20230;-75
2022/04/25 02:35:09;;;;;;;17.83;9.17;;;;;;;-145.69;100.00;71370.56;5053621;28;20209;-75
2022/04/25 02:37:35;;;;;;;18.23;9.83;;;;;;;-145.69;100.00;71374.53;5053338;28;20200;-75
2022/04/25 02:40:02;;;;;;;20.47;10.00;;;;;;;-145.69;100.00;71374.53;5053373;28;20724;-75
2022/04/25 02:42:28;;;;;;;20.97;9.73;;;;;;;-145.69;100.00;71370.56;5053306;28;20564;-74
2022/04/25 02:44:55;;;;;;;21.37;10.17;;;;;;;-145.69;100.00;71370.56;5058691;28;20561;-75
2022/04/25 02:47:22;;;;;;;19.13;10.17;;;;;;;-145.69;100.00;71380.50;5073277;28;20199;-74
2022/04/25 02:49:49;;;;;;;22.87;10.67;;;;;;;-145.69;100.00;71378.50;5073292;28;20202;-75
2022/04/25 02:52:15;;;;;;;21.90;10.50;;;;;;;-145.69;100.00;71378.50;5072769;28;20650;-75
2022/04/25 02:54:42;;;;;;;21.63;10.40;;;;;;;-145.69;100.00;71384.47;5073300;28;20198;-75
2022/04/25 02:57:08;;;;;;;18.40;10.23;;;;;;;-145.69;100.00;71380.50;5073224;28;20222;-75
2022/04/25 02:59:35;;;;;;;22.33;11.07;;;;;;;-145.69;100.00;71380.50;5073023;28;20203;-74
2022/04/25 03:02:01;;;;;;;24.67;10.70;;;;;;;-145.69;100.00;71374.53;5073287;28;20202;-75
2022/04/25 03:04:29;;;;;;;18.67;9.50;;;;;;;-145.69;100.00;71378.50;5072879;28;20226;-75
2022/04/25 03:06:55;;;;;;;23.20;10.80;;;;;;;-145.69;100.00;71378.50;5073082;28;20210;-75
2022/04/25 03:09:22;;;;;;;19.73;10.50;;;;;;;-145.69;100.00;71376.53;5072717;28;20209;-75
2022/04/25 03:11:49;;;;;;;26.97;11.70;;;;;;;-145.69;100.00;71380.50;5073160;28;20199;-75
2022/04/25 03:14:15;;;;;;;22.60;10.37;;;;;;;-145.69;100.00;71384.47;5072637;28;20623;-75
2022/04/25 03:16:42;;;;;;;21.50;11.30;;;;;;;-145.69;100.00;71380.50;5073025;28;20241;-75
2022/04/25 03:19:09;;;;;;;26.57;12.23;;;;;;;-145.69;100.00;71382.50;5072680;28;20588;-75
2022/04/25 03:21:36;;;;;;;24.97;10.90;;;;;;;-145.69;100.00;71378.50;5072877;28;20380;-75
2022/04/25 03:24:03;;;;;;;22.47;11.47;;;;;;;-145.69;100.00;71382.50;5072823;28;20227;-74
2022/04/25 03:26:30;;;;;;;23.20;11.33;;;;;;;-145.69;100.00;71386.47;5072952;28;20293;-74
2022/04/25 03:28:56;;;;;;;22.27;11.27;;;;;;;-145.69;100.00;71382.50;5073081;28;20209;-74
2022/04/25 03:31:23;;;;;;;22.60;11.50;;;;;;;-145.69;100.00;71382.50;5072691;28;20256;-74
2022/04/25 03:33:49;;;;;;;21.90;11.30;;;;;;;-145.69;100.00;71380.50;5072662;28;20711;-74
2022/04/25 03:36:15;;;;;;;27.10;10.97;;;;;;;-145.69;100.00;71384.47;5072753;28;20244;-74
2022/04/25 03:38:43;;;;;;;23.47;11.73;;;;;;;-145.69;100.00;71386.47;5078608;28;20816;-75
2022/04/25 03:41:10;;;;;;;20.07;10.13;;;;;;;-145.69;100.00;71384.47;5079205;28;20214;-74
2022/04/25 03:43:36;;;;;;;26.57;12.23;;;;;;;-145.69;100.00;71382.50;5079665;28;20222;-74
2022/04/25 03:46:03;;;;;;;22.20;11.70;;;;;;;-145.69;100.00;71386.47;5079102;28;20267;-75
2022/04/25 03:48:29;;;;;;;21.63;11.43;;;;;;;-145.69;100.00;71388.47;5079448;28;20256;-74
2022/04/25 03:50:56;;;;;;;23.07;11.33;;;;;;;-145.69;100.00;71394.44;5079061;28;20206;-74
2022/04/25 03:53:22;;;;;;;22.07;11.03;;;;;;;-145.69;100.00;71394.44;5079053;28;20198;-74
2022/04/25 03:58:34;;;;;;;23.40;11.37;;;;;;;-145.69;100.00;71390.47;5079283;28;20204;-74
2022/04/25 04:01:02;;;;;;;22.17;11.17;;;;;;;-145.69;100.00;71392.44;5079022;28;20570;-75
2022/04/25 04:03:32;;;;;;;22.93;11.43;;;;;;;-145.69;100.00;71394.44;5079021;28;20750;-75
2022/04/25 04:05:58;;;;;;;24.17;11.13;;;;;;;-145.69;100.00;71394.44;5079159;28;20285;-75
2022/04/25 04:08:25;;;;;;;22.40;11.53;;;;;;;-145.69;100.00;71384.47;5079537;28;20562;-74
2022/04/25 04:10:52;;;;;;;24.63;11.30;;;;;;;-145.69;100.00;71390.47;5079020;28;20207;-74
2022/04/25 04:13:19;;;;;;;19.97;10.80;;;;;;;-145.69;100.00;71390.47;5079048;28;20194;-75
2022/04/25 04:15:45;;;;;;;22.73;11.43;;;;;;;-145.69;100.00;71398.41;5079209;28;20561;-75
2022/04/25 04:18:12;;;;;;;20.97;10.67;;;;;;;-145.69;100.00;71388.47;5078215;28;20581;-75
2022/04/25 04:20:38;;;;;;;22.67;11.27;;;;;;;-145.69;100.00;71388.47;5061007;28;20249;-75
2022/04/25 04:23:05;;;;;;;21.70;10.63;;;;;;;-145.69;100.00;71386.47;5058990;28;20222;-75
2022/04/25 04:25:32;;;;;;;21.20;11.17;;;;;;;-145.69;100.00;71390.47;5059047;28;20199;-74
2022/04/25 04:28:02;;;;;;;22.27;10.43;;;;;;;-145.69;100.00;71390.47;5058667;28;20199;-74
2022/04/25 04:30:29;;;;;;;17.40;9.63;;;;;;;-145.69;100.00;71398.41;5074636;28;20203;-74
2022/04/25 04:32:56;;;;;;;19.07;9.53;;;;;;;-145.69;100.00;71416.31;5058868;28;20647;-74
2022/04/25 04:38:07;;;;;;;21.57;10.97;;;;;;;-145.69;100.00;71428.25;5058570;28;20257;-74
2022/04/25 04:40:34;;;;;;;20.10;10.00;;;;;;;-145.69;100.00;71434.22;5058869;28;20253;-74
2022/04/25 04:43:03;;;;;;;18.23;9.60;;;;;;;-145.69;100.00;71432.25;5065935;28;20194;-74
2022/04/25 04:45:30;;;;;;;21.00;10.67;;;;;;;-145.69;100.00;71434.22;5078534;28;20191;-75
2022/04/25 04:47:57;;;;;;;20.20;10.10;;;;;;;-145.69;100.00;71432.25;5078383;28;20210;-74
2022/04/25 04:50:23;;;;;;;18.93;9.73;;;;;;;-145.69;100.00;71432.25;5074478;28;20672;-74
2022/04/25 04:52:52;;;;;;;19.87;10.43;;;;;;;-145.69;100.00;71422.28;5075804;28;20221;-74
2022/04/25 04:55:18;;;;;;;18.63;10.53;;;;;;;-145.69;100.00;71426.28;5075595;28;20199;-74
2022/04/25 04:57:45;;;;;;;20.77;10.73;;;;;;;-145.69;100.00;71422.28;5075483;28;20203;-74
2022/04/25 05:00:15;;;;;;;21.00;10.97;;;;;;;-145.69;100.00;71430.25;5075320;28;20198;-74
2022/04/25 05:02:42;;;;;;;26.70;12.07;;;;;;;-145.69;100.00;71430.25;5075423;28;20200;-74
2022/04/25 05:05:09;;;;;;;21.13;10.17;;;;;;;-145.69;100.00;71432.25;5075318;28;20284;-74
2022/04/25 05:07:36;;;;;;;22.43;10.10;;;;;;;-145.69;100.00;71432.25;5075283;28;20203;-74
2022/04/25 05:10:04;;;;;;;19.17;9.23;;;;;;;-145.69;100.00;71422.28;5075348;28;20202;-74
2022/04/25 05:12:31;;;;;;;17.07;9.53;;;;;;;-145.69;100.00;71414.34;5074962;28;20624;-75
2022/04/25 05:14:57;;;;;;;19.20;9.73;;;;;;;-145.69;100.00;71408.38;5075116;28;20202;-74
2022/04/25 05:17:25;;;;;;;20.50;11.33;;;;;;;-145.69;100.00;71418.31;5074568;28;20330;-75
2022/04/25 05:19:52;;;;;;;22.67;10.97;;;;;;;-145.69;100.00;71438.22;5074957;28;20244;-75
2022/04/25 05:22:18;;;;;;;20.87;10.20;;;;;;;-145.69;100.00;71440.19;5074818;28;20199;-75
2022/04/25 05:24:45;;;;;;;17.17;9.07;;;;;;;-145.69;100.00;71438.22;5074650;28;20231;-75
2022/04/25 05:27:11;;;;;;;16.97;9.47;;;;;;;-145.69;100.00;71442.19;5074842;28;20202;-75
2022/04/25 05:29:37;;;;;;;18.47;9.53;;;;;;;-145.69;100.00;71436.22;5074870;28;20198;-75
2022/04/25 05:32:05;;;;;;;16.83;9.27;;;;;;;-145.69;100.00;71436.22;5074748;28;20207;-74
2022/04/25 05:34:32;;;;;;;20.93;11.60;;;;;;;-145.69;100.00;71436.22;5074747;28;20437;-75
2022/04/25 05:36:59;;;;;;;16.20;9.10;;;;;;;-145.69;100.00;71426.28;5074404;28;20201;-74
2022/04/25 05:39:25;;;;;;;23.77;11.30;;;;;;;-145.69;100.00;71430.25;5074737;28;20268;-74
2022/04/25 05:41:52;;;;;;;23.03;10.70;;;;;;;-145.69;100.00;71418.31;5074550;28;20667;-74
2022/04/25 05:44:18;;;;;;;21.57;10.87;;;;;;;-145.69;100.00;71406.38;5074225;28;20223;-75
2022/04/25 05:46:45;;;;;;;21.30;10.43;;;;;;;-145.69;100.00;71406.38;5074469;28;20535;-75
2022/04/25 05:51:59;;;;;;;19.40;10.47;;;;;;;-145.69;100.00;71354.63;5074600;28;20205;-75
2022/04/25 05:54:26;;;;;;;20.83;10.27;;;;;;;-145.69;100.00;71350.66;5074412;28;20543;-75
2022/04/25 05:56:52;;;;;;;19.47;10.50;;;;;;;-145.69;100.00;71346.69;5074739;28;20199;-75
2022/04/25 05:59:19;;;;;;;17.27;9.63;;;;;;;-145.69;100.00;71330.75;5074137;28;20653;-75
2022/04/25 06:01:45;;;;;;;15.13;8.30;;;;;;;-145.69;100.00;71316.84;5073873;28;20294;-75
2022/04/25 06:04:13;;;;;;;13.83;8.27;;;;;;;-145.69;100.00;71290.97;5074289;28;20226;-75
2022/04/25 06:06:39;;;;;;;14.43;8.03;;;;;;;-145.69;100.00;71294.94;5073753;28;20195;-75
2022/04/25 06:09:07;;;;;;;14.47;7.53;;;;;;;-145.69;100.00;71265.09;5074122;28;20210;-75
2022/04/25 06:11:33;;;;;;;14.43;7.63;;;;;;;-145.69;100.00;71261.13;5074211;28;20213;-75
2022/04/25 06:14:02;;;;;;;11.67;7.80;;;;;;;-145.69;100.00;71213.38;5073863;28;20194;-75
2022/04/25 06:16:28;;;;;;;9.43;5.73;;;;;;;-145.69;100.00;71197.44;5065887;28;20315;-75
2022/04/25 06:18:55;;;;;;;9.50;5.97;;;;;;;-145.69;100.00;71191.47;5053761;28;20195;-75
2022/04/25 06:21:21;;;;;;;8.90;5.37;;;;;;;-145.69;100.00;71153.66;5053856;28;20210;-75
2022/04/25 06:23:47;;;;;;;9.97;5.93;;;;;;;-145.69;100.00;71153.66;5053963;28;20219;-75
2022/04/25 06:26:15;;;;;;;12.13;5.57;;;;;;;-145.69;100.00;71153.66;5053913;28;20207;-75
2022/04/25 06:28:42;;;;;;;7.60;5.40;;;;;;;-145.69;100.00;71139.75;5053730;28;20617;-75
2022/04/25 06:31:09;;;;;;;8.27;5.13;;;;;;;-145.69;100.00;71151.69;5057291;28;20244;-75
2022/04/25 06:33:36;;;;;;;9.17;5.47;;;;;;;-145.69;100.00;71175.56;5073269;28;20199;-75
2022/04/25 06:36:03;;;;;;;7.60;5.23;;;;;;;-145.69;100.00;71211.38;5073411;28;20252;-75
2022/04/25 06:38:30;;;;;;;7.47;4.80;;;;;;;-145.69;100.00;71237.25;5073719;28;20199;-75
2022/04/25 06:40:56;;;;;;;7.20;4.93;;;;;;;-145.69;100.00;71179.53;5073368;28;20606;-75
2022/04/25 06:43:24;;;;;;;7.53;4.63;;;;;;;-145.69;100.00;71211.38;5073329;28;20252;-75
2022/04/25 06:45:51;;;;;;;9.83;5.50;;;;;;;-145.69;100.00;71221.31;5073004;28;20233;-75
2022/04/25 06:48:17;;;;;;;8.90;5.70;;;;;;;-145.69;100.00;71197.44;5073318;28;20202;-75
2022/04/25 06:50:44;;;;;;;8.73;5.60;;;;;;;-145.69;100.00;71165.59;5073087;28;20202;-74
2022/04/25 06:53:11;;;;;;;8.87;5.47;;;;;;;-145.69;100.00;71145.72;5073039;28;20199;-75
2022/04/25 06:55:37;;;;;;;6.63;4.97;;;;;;;-145.69;100.00;71105.91;5073338;28;20195;-74
2022/04/25 06:58:04;;;;;;;8.47;5.27;;;;;;;-145.69;100.00;71175.56;5073232;28;20202;-74
2022/04/25 07:00:31;;;;;;;7.47;4.97;;;;;;;-145.69;100.00;71145.72;5072501;28;20864;-75
2022/04/25 07:02:58;;;;;;;8.57;5.70;;;;;;;-145.69;100.00;71127.81;5072774;28;20252;-74
2022/04/25 07:05:25;;;;;;;7.37;5.13;;;;;;;-145.69;100.00;71131.78;5072871;28;20693;-74
2022/04/25 07:07:52;;;;;;;9.67;5.60;;;;;;;-145.69;100.00;71121.84;5073241;28;20397;-74
2022/04/25 07:10:18;;;;;;;8.10;5.33;;;;;;;-145.69;100.00;71127.81;5072985;28;20598;-74
2022/04/25 07:12:45;;;;;;;11.17;5.07;;;;;;;-145.69;100.00;71107.91;5071975;28;20663;-74
2022/04/25 07:15:11;;;;;;;7.63;4.90;;;;;;;-145.69;100.00;71068.13;5073033;28;20202;-74
2022/04/25 07:17:39;;;;;;;6.73;4.80;;;;;;;-145.69;100.00;71040.25;5072697;28;20767;-74
2022/04/25 07:20:07;;;;;;;7.20;5.17;;;;;;;-145.69;100.00;71060.16;5072956;28;20205;-74
2022/04/25 07:30:46;;;;;;;7.50;4.87;;;;;;;-145.69;100.00;70906.94;5072421;28;20244;-75
2022/04/25 07:33:13;;;;;;;8.73;5.40;;;;;;;-145.69;95.70;70879.09;5072770;28;20198;-75
2022/04/25 07:35:40;;;;;;;7.57;5.37;;;;;;;-145.69;97.26;70948.72;5072593;28;20658;-75
2022/04/25 07:38:06;;;;;;;9.00;5.22;;;;;;;-145.69;96.40;70871.13;5072628;28;20649;-74
2022/04/25 07:40:33;;;;;;;7.40;5.43;;;;;;;-145.69;94.71;70789.56;5072677;28;20202;-74
2022/04/25 07:42:59;;;;;;;9.88;5.80;;;;;;;-145.69;93.51;70823.38;5072930;28;20199;-74
2022/04/25 07:45:26;;;;;;;9.05;5.47;;;;;;;-145.69;93.24;70829.34;5072564;28;20713;-75
2022/04/25 07:47:52;;;;;;;9.30;5.70;;;;;;;-145.69;93.33;70799.50;5072373;28;20323;-75
2022/04/25 07:50:23;;;;;;;8.10;5.43;;;;;;;-145.69;100.00;70797.53;5072461;28;20198;-74
2022/04/25 07:52:49;;;;;;;11.05;6.13;;;;;;;-145.69;96.05;70793.53;5072724;28;20195;-74
2022/04/25 07:55:16;;;;;;;8.90;5.60;;;;;;;-145.69;100.00;70821.41;5072466;28;20666;-74
2022/04/25 07:57:42;;;;;;;8.40;5.68;;;;;;;-145.69;93.94;70849.25;5072973;28;20203;-74
2022/04/25 08:00:10;;;;;;;9.55;6.53;;;;;;;-145.69;97.61;70906.94;5072391;28;20202;-74
2022/04/25 08:02:36;;;;;;;9.10;5.82;;;;;;;-145.69;100.00;70936.78;5072346;28;20202;-74
2022/04/25 08:05:03;;;;;;;14.68;7.20;;;;;;;-145.69;97.53;70912.91;5072483;28;20230;-74
2022/04/25 08:07:30;;;;;;;10.48;6.80;;;;;;;-145.69;100.00;70835.31;5072073;28;20194;-74
2022/04/25 08:09:57;;;;;;;14.07;7.25;;;;;;;-145.69;86.29;70765.69;5072369;28;20206;-75
2022/04/25 08:17:59;;;;;;;11.18;6.57;;;;;;;-145.69;89.81;70690.09;5071889;28;20234;-75
2022/04/25 08:20:28;;;;;;;13.05;6.40;;;;;;;-145.69;90.45;70678.16;5054618;28;20199;-75
2022/04/25 08:22:56;;;;;;;9.02;5.95;;;;;;;-145.69;90.53;70670.19;5052410;28;20673;-74
2022/04/25 08:25:23;;;;;;;8.25;5.68;;;;;;;-145.69;89.09;70678.16;5056055;28;20227;-74
2022/04/25 08:27:49;;;;;;;12.75;6.53;;;;;;;-145.69;89.98;70674.16;5056476;28;20681;-75
2022/04/25 08:30:16;;;;;;;9.75;6.05;;;;;;;-145.69;89.16;70656.25;5055964;28;20210;-75
2022/04/25 08:32:42;;;;;;;7.68;5.18;;;;;;;-145.69;87.27;70634.38;5055986;28;20207;-76
2022/04/25 08:35:09;;;;;;;8.10;5.22;;;;;;;-145.69;81.71;70644.31;5056105;28;20211;-75
2022/04/25 08:37:36;;;;;;;10.75;6.20;;;;;;;-145.69;85.77;70823.38;5055998;28;20293;-74
2022/04/25 08:40:04;;;;;;;9.57;5.93;;;;;;;-145.69;91.09;70823.38;5055890;28;20241;-75
2022/04/25 08:42:31;;;;;;;10.68;5.85;;;;;;;-145.69;88.86;70813.44;5065459;28;20191;-74
2022/04/25 08:45:02;;;;;;;10.60;6.47;;;;;;;-145.69;89.02;70723.91;5075480;28;20223;-75
2022/04/25 08:47:33;;;;;;;15.63;6.43;;;;;;;-145.69;85.04;70686.09;5075601;28;20653;-74
2022/04/25 08:50:00;;;;;;;8.82;5.93;;;;;;;-145.69;79.63;70654.28;5075334;28;20604;-74
2022/04/25 08:52:28;;;;;;;9.13;6.22;;;;;;;-145.69;78.29;70678.16;5075529;28;20210;-74
2022/04/25 08:54:57;;;;;;;9.55;5.82;;;;;;;-145.69;86.83;70662.22;5075625;28;20256;-75
2022/04/25 08:57:26;;;;;;;8.57;5.50;;;;;;;-145.69;84.76;70729.88;5075545;28;20198;-74
2022/04/25 08:59:55;;;;;;;9.35;5.85;;;;;;;-145.69;88.50;70708.00;5075190;28;20199;-74
2022/04/25 09:02:23;;;;;;;9.80;6.60;;;;;;;-145.69;86.59;70803.50;5075580;28;20264;-74
2022/04/25 09:04:49;;;;;;;10.88;6.70;;;;;;;-145.69;90.14;70807.47;5075382;28;20758;-75
2022/04/25 09:07:16;;;;;;;9.65;6.22;;;;;;;-145.69;87.39;70789.56;5075203;28;20203;-75
2022/04/25 09:09:43;;;;;;;10.20;6.63;;;;;;;-145.69;91.88;70803.50;5075299;28;20202;-74
2022/04/25 09:12:13;;;;;;;8.85;5.47;;;;;;;-145.69;86.02;70783.59;5074878;28;20723;-75
2022/04/25 09:14:43;;;;;;;10.93;5.80;;;;;;;-145.69;82.82;70706.00;5075308;28;20287;-75
2022/04/25 09:17:10;;;;;;;14.73;6.45;;;;;;;-145.69;87.17;70785.59;5075044;28;20227;-74
2022/04/25 09:19:38;;;;;;;9.63;5.85;;;;;;;-145.69;87.34;70793.53;5074534;28;20256;-74
2022/04/25 09:22:05;;;;;;;9.02;6.13;;;;;;;-145.69;90.59;70843.28;5075232;28;20272;-74
2022/04/25 09:24:34;;;;;;;15.95;6.50;;;;;;;-145.69;93.00;70789.56;5074772;28;20202;-74
2022/04/25 09:27:24;;;;;;;8.18;5.80;;;;;;;-145.69;84.37;70785.59;5074758;28;20211;-75
2022/04/25 09:29:52;;;;;;;11.93;6.05;;;;;;;-145.69;83.60;70789.56;5063838;28;20565;-75
2022/04/25 09:32:19;;;;;;;8.90;6.03;;;;;;;-145.69;83.95;70873.13;5074756;28;20787;-75
2022/04/25 09:35:02;;;;;;;7.82;5.85;;;;;;;-145.69;89.14;70885.06;5074352;28;20253;-74
2022/04/25 09:37:41;;;;;;;8.18;5.63;;;;;;;-145.69;87.00;70879.09;5074467;28;20302;-75
2022/04/25 09:40:09;;;;;;;9.18;5.65;;;;;;;-145.69;86.71;70857.22;5074648;28;20202;-74
2022/04/25 09:42:36;;;;;;;10.02;6.20;;;;;;;-145.69;89.04;70841.28;5074571;28;20225;-75
2022/04/25 09:45:06;;;;;;;9.05;6.47;;;;;;;-145.69;94.16;70863.19;5074389;28;20218;-74
2022/04/25 09:47:34;;;;;;;10.38;6.00;;;;;;;-145.69;91.33;70827.38;5073898;28;20198;-74
2022/04/25 09:50:04;;;;;;;8.63;6.22;;;;;;;-145.69;89.78;70819.41;5074560;28;20207;-75
2022/04/25 09:52:43;;;;;;;7.97;5.45;;;;;;;-145.69;90.12;70801.50;5074522;28;20207;-75
2022/04/25 09:55:15;;;;;;;9.00;5.72;;;;;;;-145.69;90.91;70769.66;5074374;28;20203;-76
2022/04/25 09:57:44;;;;;;;12.23;6.40;;;;;;;-145.69;87.84;70799.50;5074288;28;20206;-76
2022/04/25 10:00:14;;;;;;;9.75;6.28;;;;;;;-145.69;88.78;70797.53;5073962;28;20199;-75
2022/04/25 10:02:42;;;;;;;10.00;5.93;;;;;;;-145.69;88.14;70783.59;5074053;28;20252;-74
2022/04/25 10:05:14;;;;;;;7.28;5.32;;;;;;;-145.69;87.16;70773.66;5074004;28;20222;-75
2022/04/25 10:07:41;;;;;;;8.70;5.70;;;;;;;-145.69;81.85;70757.72;5074177;28;20265;-75
2022/04/25 10:10:09;;;;;;;7.88;5.20;;;;;;;-145.69;81.39;70678.16;5074119;28;20202;-75
2022/04/25 10:12:36;;;;;;;9.52;5.55;;;;;;;-145.69;84.71;70654.28;5073537;28;20644;-75
2022/04/25 10:15:03;;;;;;;7.97;5.38;;;;;;;-145.69;86.66;70612.50;5074212;28;20238;-74
2022/04/25 10:17:32;;;;;;;13.40;5.78;;;;;;;-145.69;86.17;70614.47;5057682;28;20234;-75
2022/04/25 10:19:59;;;;;;;7.45;5.45;;;;;;;-145.69;84.83;70642.34;5053383;28;20235;-76
2022/04/25 10:22:26;;;;;;;7.32;4.60;;;;;;;-145.69;84.87;70628.41;5053977;28;20256;-76
2022/04/25 10:24:55;;;;;;;8.45;5.78;;;;;;;-145.69;83.81;70672.19;5053702;28;20206;-75
2022/04/25 10:27:27;;;;;;;9.20;5.35;;;;;;;-145.69;83.59;70711.97;5053662;28;20207;-75
2022/04/25 10:29:55;;;;;;;9.32;6.18;;;;;;;-145.69;84.62;70805.47;5054003;28;20210;-75
2022/04/25 10:32:23;;;;;;;12.98;5.82;;;;;;;-145.69;91.60;70819.41;5053471;28;20257;-75
2022/04/25 10:34:54;;;;;;;10.00;6.35;;;;;;;-145.69;91.96;70885.06;5066328;28;20559;-74
2022/04/25 10:37:31;;;;;;;10.05;5.72;;;;;;;-145.69;97.02;70938.78;5073446;28;20257;-74
2022/04/25 10:39:58;;;;;;;14.50;6.80;;;;;;;-145.69;95.85;70964.66;5073256;28;20210;-74
2022/04/25 10:45:09;;;;;;;11.33;6.83;;;;;;;-145.69;100.00;71125.81;5073045;28;20229;-75
2022/04/25 10:47:36;;;;;;;16.27;7.97;;;;;;;-145.69;100.00;71199.44;5072532;28;20561;-76
2022/04/25 10:50:07;;;;;;;14.48;9.18;;;;;;;-145.69;100.00;71267.09;5072488;28;20430;-76
2022/04/25 10:52:55;;;;;;;13.20;8.77;;;;;;;-145.69;100.00;71342.69;5073489;28;20195;-75
2022/04/25 10:55:45;;;;;;;17.83;9.17;;;;;;;-145.69;100.00;71416.31;5068451;28;20543;-75
2022/04/25 10:58:19;;;;;;;16.83;9.40;;;;;;;-145.69;100.00;71511.84;5073254;28;20538;-74
2022/04/25 11:00:54;;;;;;;15.10;8.63;;;;;;;-145.69;100.00;71577.50;5073029;28;20186;-75
2022/04/25 11:03:23;;;;;;;29.37;16.10;;;;;;;-145.69;100.00;71603.38;5072937;28;20292;-78
2022/04/25 11:05:53;;;;;;;29.60;15.53;;;;;;;-145.69;100.00;71619.28;5072779;28;20311;-74
2022/04/25 11:08:37;;;;;;;44.77;24.90;;;;;;;-145.69;100.00;71617.31;5072410;28;20198;-74
2022/04/25 11:11:08;;;;;;;38.53;22.67;;;;;;;-145.69;100.00;71627.25;5072842;28;20549;-73
2022/04/25 11:13:36;;;;;;;17.40;9.77;;;;;;;-145.69;100.00;71629.25;5072693;28;20609;-73
2022/04/25 11:16:18;;;;;;;20.43;11.33;;;;;;;-145.69;100.00;71633.22;5072811;28;20202;-73
2022/04/25 11:18:45;;;;;;;24.37;14.20;;;;;;;-145.69;100.00;71621.28;5072967;28;20203;-73
2022/04/25 11:21:16;;;;;;;28.37;16.30;;;;;;;-145.69;100.00;71613.31;5072936;28;20229;-74
2022/04/25 11:23:49;;;;;;;17.90;9.20;;;;;;;-145.69;100.00;71613.31;5072865;28;20662;-73
2022/04/25 11:26:55;;;;;;;15.27;7.30;;;;;;;-145.69;100.00;71633.22;5072500;28;20234;-73
2022/04/25 11:29:22;;;;;;;12.03;6.17;;;;;;;-145.69;100.00;71635.22;5010802;28;20241;-73
2022/04/25 11:31:49;;;;;;;10.40;6.40;;;;;;;-145.69;100.00;71629.25;5011016;28;20200;-74
2022/04/25 11:34:22;;;;;;;12.40;6.97;;;;;;;-145.69;100.00;71615.31;5040370;28;20305;-73
2022/04/25 11:36:50;;;;;;;11.00;6.47;;;;;;;-145.69;100.00;71595.41;5072337;28;20197;-73